Huvudsida
METAR-TAF:

METAR-TAF

Flygplatser :

Kittilä flygplats

Kittilä, Finland

latitud: 67-42N, longitud: 024-51E, höjd: 196 m

Aktuellt väderrapport

Denna rapport gjordes för 25 minuter sedan, klockan 20:50 UTC
Vind 3 kt från sydväst
Temperatur 11°C
Fuktighet 82%
Tryck 998 hPa
Sikt 10 km eller mer
Brutna moln på en höjd av 4700 ft

METAR: EFKT 202050Z 23003KT 9999 BKN047 11/08 Q0998

Tid: 00:15 (21:15 UTC)

Väderprognos

Denna rapport gjordes för 50 minuter sedan, klockan 20:25 UTC
Prognos gäller från 20 kl. 21 UTC till 20 kl. 24 UTC
Vind 4 kt från väst
Sikt 10 km eller mer
Få moln på en höjd av 4500 ft
Temporärt
från 20 kl. 21 UTC till 20 kl. 24 UTC
Få moln på en höjd av 4500 ft, Cumulonimbus.

TAF: EFKT 202025Z 2021/2024 26004KT 9999 FEW045 TEMPO 2021/2024 FEW045CB

Aktuella väderrapporter och prognoser från 4000 flygplatser (METAR- och TAF-rapporter).

De tillgängliga stationerna syns som gula och röda prickar på kartan.

För musen över prickarna för att se namnen på stationerna.

Klicka sedan för att få väderrapporter och prognoser.

För att ändra kartan: Klicka på de gröna knapparna med ett svart kors på för att zooma in; den gröna knappen med ett streck på för att zooma ut; eller på de gröna pilarna för angränsande kartor.


METAR-TAF: